createdAt,value
2017-06-16T00:00:01.325Z,0
2017-06-16T00:02:25.519Z,0
2017-06-16T00:06:59.839Z,0
2017-06-16T00:13:13.196Z,0
2017-06-16T00:15:38.385Z,0
2017-06-16T00:18:02.598Z,0
2017-06-16T00:20:26.803Z,0
2017-06-16T00:22:51.001Z,0
2017-06-16T00:25:15.181Z,0
2017-06-16T00:27:40.371Z,0
2017-06-16T00:30:05.592Z,0
2017-06-16T00:32:21.346Z,0
2017-06-16T00:35:01.470Z,0
2017-06-16T00:37:17.168Z,0
2017-06-16T00:39:43.371Z,0
2017-06-16T00:41:59.120Z,0
2017-06-16T00:44:25.320Z,0
2017-06-16T00:46:49.489Z,0
2017-06-16T00:49:15.664Z,0
2017-06-16T00:51:41.788Z,0
2017-06-16T00:54:12.465Z,0
2017-06-16T00:58:29.612Z,0
2017-06-16T01:03:09.794Z,0
2017-06-16T01:05:34.184Z,0
2017-06-16T01:10:14.557Z,0
2017-06-16T01:12:39.731Z,0
2017-06-16T01:17:04.839Z,0
2017-06-16T01:19:31.013Z,0
2017-06-16T01:21:55.200Z,0
2017-06-16T01:24:19.356Z,0
2017-06-16T01:26:35.048Z,0
2017-06-16T01:28:33.847Z,0
2017-06-16T01:30:56.066Z,0
2017-06-16T01:33:21.180Z,0
2017-06-16T01:35:45.318Z,0
2017-06-16T01:38:16.060Z,0
2017-06-16T01:40:40.206Z,0
2017-06-16T01:43:05.353Z,0
2017-06-16T01:45:29.475Z,0
2017-06-16T01:47:36.718Z,0
2017-06-16T01:50:01.851Z,0
2017-06-16T01:52:28.000Z,0
2017-06-16T01:54:52.096Z,0
2017-06-16T01:57:33.083Z,0
2017-06-16T01:59:48.779Z,0
2017-06-16T02:02:13.908Z,0
2017-06-16T02:04:40.061Z,0
2017-06-16T02:07:04.206Z,0
2017-06-16T02:09:29.340Z,0
2017-06-16T02:12:00.073Z,0
2017-06-16T02:14:26.158Z,0
2017-06-16T02:16:50.285Z,0
2017-06-16T02:19:14.391Z,0
2017-06-16T02:21:39.502Z,0
2017-06-16T02:24:03.596Z,0
2017-06-16T02:26:27.730Z,0
2017-06-16T02:28:52.864Z,0
2017-06-16T02:31:16.995Z,0
2017-06-16T02:33:41.113Z,0
2017-06-16T02:36:05.255Z,0
2017-06-16T02:38:21.922Z,0
2017-06-16T02:40:46.046Z,0
2017-06-16T02:43:10.109Z,0
2017-06-16T02:45:34.218Z,0
2017-06-16T02:47:57.580Z,0
2017-06-16T02:50:21.688Z,0
2017-06-16T02:52:45.803Z,0
2017-06-16T02:55:10.921Z,0
2017-06-16T02:57:35.059Z,0
2017-06-16T02:59:59.203Z,0
2017-06-16T03:02:23.650Z,0
2017-06-16T03:04:48.780Z,0
2017-06-16T03:09:14.313Z,0
2017-06-16T03:11:30.029Z,0
2017-06-16T03:13:55.174Z,0
2017-06-16T03:16:19.716Z,0
2017-06-16T03:18:42.133Z,0
2017-06-16T03:20:57.803Z,0
2017-06-16T03:23:21.907Z,0
2017-06-16T03:25:37.582Z,0
2017-06-16T03:28:10.622Z,0
2017-06-16T03:32:44.629Z,0
2017-06-16T03:35:09.736Z,0
2017-06-16T03:37:25.395Z,5
2017-06-16T03:39:49.474Z,5
2017-06-16T03:42:15.555Z,5
2017-06-16T03:44:32.154Z,5
2017-06-16T03:46:57.233Z,5
2017-06-16T03:49:21.334Z,10
2017-06-16T03:51:28.569Z,10
2017-06-16T03:53:52.644Z,10
2017-06-16T03:56:17.717Z,10
2017-06-16T03:58:43.833Z,10
2017-06-16T04:00:52.046Z,10
2017-06-16T04:03:23.959Z,10
2017-06-16T04:05:48.070Z,10
2017-06-16T04:08:12.126Z,15
2017-06-16T04:10:42.963Z,15
2017-06-16T04:13:07.048Z,20
2017-06-16T04:15:31.168Z,20
2017-06-16T04:17:56.239Z,20
2017-06-16T04:20:27.956Z,20
2017-06-16T04:22:35.189Z,25
2017-06-16T04:24:50.868Z,25
2017-06-16T04:27:21.972Z,30
2017-06-16T04:29:38.672Z,30
2017-06-16T04:32:10.476Z,30
2017-06-16T04:34:33.033Z,35
2017-06-16T04:37:03.542Z,35
2017-06-16T04:39:27.668Z,40
2017-06-16T04:41:51.811Z,40
2017-06-16T04:44:15.943Z,45
2017-06-16T04:46:41.090Z,50
2017-06-16T04:49:05.260Z,50
2017-06-16T04:51:21.986Z,50
2017-06-16T04:53:38.706Z,50
2017-06-16T04:56:02.864Z,55
2017-06-16T04:58:18.584Z,120
2017-06-16T05:00:34.394Z,160
2017-06-16T05:04:26.038Z,55
2017-06-16T05:06:50.573Z,55
2017-06-16T05:09:30.788Z,65
2017-06-16T05:11:47.815Z,105
2017-06-16T05:14:03.839Z,200
2017-06-16T05:16:11.508Z,210
2017-06-16T05:18:42.936Z,220
2017-06-16T05:21:00.523Z,230
2017-06-16T05:23:19.341Z,230
2017-06-16T05:25:36.406Z,235
2017-06-16T05:28:03.235Z,235
2017-06-16T05:30:31.249Z,255
2017-06-16T05:32:58.440Z,260
2017-06-16T05:37:01.465Z,275
2017-06-16T05:39:34.867Z,285
2017-06-16T05:43:52.914Z,305
2017-06-16T05:48:25.221Z,340
2017-06-16T05:52:28.571Z,390
2017-06-16T05:54:57.560Z,645
2017-06-16T05:57:24.617Z,1855
2017-06-16T06:01:19.017Z,570
2017-06-16T06:04:02.759Z,485
2017-06-16T06:06:31.666Z,295
2017-06-16T06:10:17.440Z,470
2017-06-16T06:14:11.428Z,185
2017-06-16T06:18:13.127Z,395
2017-06-16T06:22:06.022Z,1635
2017-06-16T06:26:08.089Z,1015
2017-06-16T06:30:10.694Z,1120
2017-06-16T06:34:12.863Z,460
2017-06-16T06:36:30.786Z,555
2017-06-16T06:40:33.811Z,610
2017-06-16T06:44:36.681Z,355
2017-06-16T06:48:39.226Z,450
2017-06-16T06:51:05.345Z,365
2017-06-16T06:55:07.210Z,595
2017-06-16T06:59:00.826Z,625
2017-06-16T07:01:34.614Z,655
2017-06-16T07:05:27.704Z,475
2017-06-16T07:11:06.341Z,385
2017-06-16T07:14:59.394Z,565
2017-06-16T07:17:26.032Z,695
2017-06-16T07:21:27.897Z,460
2017-06-16T07:25:20.694Z,585
2017-06-16T07:28:01.973Z,595
2017-06-16T07:30:18.953Z,550
2017-06-16T07:34:11.660Z,620
2017-06-16T07:36:45.931Z,600
2017-06-16T07:39:02.859Z,760
2017-06-16T07:41:44.944Z,830
2017-06-16T07:44:17.936Z,790
2017-06-16T07:48:35.559Z,690
2017-06-16T07:52:37.523Z,505
2017-06-16T07:58:06.251Z,510
2017-06-16T08:03:35.433Z,460
2017-06-16T08:10:28.474Z,430
2017-06-16T08:14:30.022Z,415
2017-06-16T08:18:23.066Z,410
2017-06-16T08:23:52.888Z,400
2017-06-16T08:27:54.521Z,400
2017-06-16T08:33:32.768Z,385
2017-06-16T08:37:34.937Z,385
2017-06-16T08:41:37.156Z,380
2017-06-16T08:45:38.827Z,405
2017-06-16T08:47:56.162Z,425
2017-06-16T08:51:54.456Z,405
2017-06-16T08:55:56.060Z,405
2017-06-16T08:59:49.121Z,410
2017-06-16T09:03:50.722Z,390
2017-06-16T09:06:33.437Z,385
2017-06-16T09:09:14.956Z,390
2017-06-16T09:12:59.508Z,385
2017-06-16T09:17:01.123Z,370
2017-06-16T09:19:33.842Z,360
2017-06-16T09:23:52.141Z,335
2017-06-16T09:27:45.136Z,325
2017-06-16T09:31:47.119Z,305
2017-06-16T09:35:48.562Z,200
2017-06-16T09:39:49.963Z,300
2017-06-16T09:47:29.235Z,290
2017-06-16T09:51:30.578Z,280
2017-06-16T09:53:56.038Z,280
2017-06-16T09:57:48.767Z,265
2017-06-16T10:00:22.006Z,255
2017-06-16T10:04:23.241Z,120
2017-06-16T10:06:50.591Z,240
2017-06-16T10:10:51.666Z,235
2017-06-16T10:14:52.677Z,215
2017-06-16T10:18:45.682Z,215
2017-06-16T10:20:46.374Z,215
2017-06-16T10:23:09.894Z,170
2017-06-16T10:25:34.982Z,125
2017-06-16T10:28:00.032Z,205
2017-06-16T10:30:25.104Z,145
2017-06-16T10:32:50.136Z,205
2017-06-16T10:35:15.137Z,135
2017-06-16T10:37:31.627Z,210
2017-06-16T10:39:48.106Z,190
2017-06-16T10:41:56.109Z,190
2017-06-16T10:44:21.097Z,185
2017-06-16T10:48:39.232Z,185
2017-06-16T10:50:55.685Z,185
2017-06-16T10:53:20.775Z,125
2017-06-16T10:55:45.773Z,175
2017-06-16T10:58:10.711Z,120
2017-06-16T11:02:37.237Z,175
2017-06-16T11:05:02.146Z,180
2017-06-16T11:07:27.033Z,175
2017-06-16T11:09:51.964Z,105
2017-06-16T11:12:08.383Z,170
2017-06-16T11:14:33.264Z,145
2017-06-16T11:16:58.228Z,135
2017-06-16T11:19:06.136Z,130
2017-06-16T11:21:14.141Z,115
2017-06-16T11:23:30.528Z,120
2017-06-16T11:27:57.093Z,125
2017-06-16T11:30:21.957Z,160
2017-06-16T11:32:46.867Z,165
2017-06-16T11:35:03.289Z,155
2017-06-16T11:37:28.157Z,115
2017-06-16T11:39:52.960Z,150
2017-06-16T11:42:17.769Z,115
2017-06-16T11:44:42.645Z,125
2017-06-16T11:47:07.561Z,135
2017-06-16T11:49:32.368Z,160
2017-06-16T11:51:57.255Z,155
2017-06-16T11:54:22.062Z,150
2017-06-16T11:56:46.825Z,140
2017-06-16T11:59:11.618Z,130
2017-06-16T12:01:36.398Z,115
2017-06-16T12:04:01.171Z,110
2017-06-16T12:06:00.544Z,115
2017-06-16T12:08:25.343Z,150
2017-06-16T12:10:50.152Z,120
2017-06-16T12:13:14.938Z,125
2017-06-16T12:15:31.251Z,110
2017-06-16T12:17:56.030Z,105
2017-06-16T12:20:36.357Z,105
2017-06-16T12:23:07.858Z,140
2017-06-16T12:25:32.674Z,150
2017-06-16T12:27:49.105Z,135
2017-06-16T12:30:13.984Z,135
2017-06-16T12:32:38.845Z,125
2017-06-16T12:34:56.252Z,100
2017-06-16T12:37:21.171Z,130
2017-06-16T12:41:56.246Z,125
2017-06-16T12:44:22.186Z,115
2017-06-16T12:46:30.111Z,110
2017-06-16T12:48:46.517Z,150
2017-06-16T12:51:12.433Z,145
2017-06-16T12:53:38.338Z,135
2017-06-16T12:55:54.776Z,135
2017-06-16T12:58:19.671Z,115
2017-06-16T13:00:44.600Z,115
2017-06-16T13:03:09.566Z,125
2017-06-16T13:07:36.126Z,120
2017-06-16T13:10:01.037Z,130
2017-06-16T13:12:25.997Z,130
2017-06-16T13:14:43.474Z,130
2017-06-16T13:17:08.430Z,115
2017-06-16T13:19:33.407Z,100
2017-06-16T13:21:58.367Z,105
2017-06-16T13:24:14.849Z,90
2017-06-16T13:26:39.795Z,105
2017-06-16T13:33:08.897Z,110
2017-06-16T13:35:33.827Z,110
2017-06-16T13:37:50.255Z,105
2017-06-16T13:40:15.143Z,110
2017-06-16T13:44:50.259Z,115
2017-06-16T13:47:15.164Z,110
2017-06-16T13:49:40.087Z,105
2017-06-16T13:52:05.078Z,100
2017-06-16T13:54:30.093Z,100
2017-06-16T13:56:55.002Z,95
2017-06-16T13:59:19.865Z,95
2017-06-16T14:01:44.740Z,100
2017-06-16T14:06:11.195Z,110
2017-06-16T14:08:36.066Z,100
2017-06-16T14:11:00.891Z,105
2017-06-16T14:13:25.693Z,100
2017-06-16T14:15:42.033Z,100
2017-06-16T14:18:06.852Z,100
2017-06-16T14:20:31.670Z,100
2017-06-16T14:22:56.494Z,100
2017-06-16T14:25:12.807Z,105
2017-06-16T14:27:37.610Z,100
2017-06-16T14:30:02.403Z,90
2017-06-16T14:32:27.214Z,85
2017-06-16T14:34:52.061Z,85
2017-06-16T14:37:16.892Z,80
2017-06-16T14:39:41.672Z,80
2017-06-16T14:42:06.451Z,75
2017-06-16T14:46:32.716Z,75
2017-06-16T14:48:57.510Z,80
2017-06-16T14:51:22.229Z,95
2017-06-16T14:53:47.003Z,85
2017-06-16T14:58:13.335Z,85
2017-06-16T15:00:38.112Z,95
2017-06-16T15:03:02.897Z,90
2017-06-16T15:05:19.196Z,80
2017-06-16T15:09:45.633Z,75
2017-06-16T15:12:10.435Z,75
2017-06-16T15:14:35.227Z,75
2017-06-16T15:16:59.981Z,75
2017-06-16T15:19:24.728Z,80
2017-06-16T15:21:49.418Z,80
2017-06-16T15:24:14.190Z,80
2017-06-16T15:26:21.978Z,80
2017-06-16T15:28:46.751Z,80
2017-06-16T15:31:11.507Z,80
2017-06-16T15:35:46.416Z,80
2017-06-16T15:38:02.733Z,70
2017-06-16T15:42:38.134Z,70
2017-06-16T15:45:02.876Z,65
2017-06-16T15:47:27.628Z,65
2017-06-16T15:49:52.349Z,60
2017-06-16T15:52:17.071Z,60
2017-06-16T15:56:35.373Z,55
2017-06-16T15:59:00.099Z,55
2017-06-16T16:01:24.817Z,50
2017-06-16T16:05:25.893Z,50
2017-06-16T16:07:50.634Z,50
2017-06-16T16:10:15.353Z,55
2017-06-16T16:12:40.068Z,55
2017-06-16T16:15:04.851Z,60
2017-06-16T16:17:21.133Z,60
2017-06-16T16:19:45.810Z,60
2017-06-16T16:21:53.542Z,60
2017-06-16T16:24:18.208Z,60
2017-06-16T16:26:42.847Z,65
2017-06-16T16:29:07.474Z,60
2017-06-16T16:31:34.104Z,60
2017-06-16T16:33:58.711Z,60
2017-06-16T16:36:24.342Z,65
2017-06-16T16:38:49.965Z,65
2017-06-16T16:41:14.574Z,60
2017-06-16T16:43:39.172Z,55
2017-06-16T16:46:04.858Z,55
2017-06-16T16:48:29.463Z,55
2017-06-16T16:50:54.116Z,55
2017-06-16T16:53:18.729Z,50
2017-06-16T16:55:34.853Z,50
2017-06-16T16:57:59.515Z,55
2017-06-16T17:00:24.228Z,55
2017-06-16T17:02:48.802Z,55
2017-06-16T17:05:13.395Z,55
2017-06-16T17:07:38.099Z,55
2017-06-16T17:10:02.679Z,50
2017-06-16T17:12:27.370Z,45
2017-06-16T17:14:43.629Z,45
2017-06-16T17:17:08.278Z,45
2017-06-16T17:19:32.886Z,40
2017-06-16T17:21:57.578Z,40
2017-06-16T17:24:24.225Z,40
2017-06-16T17:26:48.917Z,40
2017-06-16T17:29:05.147Z,35
2017-06-16T17:31:29.794Z,35
2017-06-16T17:33:45.885Z,35
2017-06-16T17:36:02.096Z,35
2017-06-16T17:40:38.316Z,30
2017-06-16T17:43:02.861Z,30
2017-06-16T17:45:18.997Z,30
2017-06-16T17:47:43.535Z,30
2017-06-16T17:50:08.022Z,30
2017-06-16T17:52:32.627Z,30
2017-06-16T17:54:48.746Z,25
2017-06-16T17:57:04.837Z,25
2017-06-16T18:01:05.239Z,25
2017-06-16T18:03:30.768Z,25
2017-06-16T18:05:55.347Z,20
2017-06-16T18:08:11.457Z,20
2017-06-16T18:12:46.418Z,20
2017-06-16T18:15:10.983Z,20
2017-06-16T18:17:26.964Z,15
2017-06-16T18:19:53.443Z,15
2017-06-16T18:22:17.917Z,15
2017-06-16T18:24:44.474Z,15
2017-06-16T18:27:00.480Z,15
2017-06-16T18:29:16.551Z,15
2017-06-16T18:31:32.582Z,10
2017-06-16T18:33:58.030Z,10
2017-06-16T18:36:16.027Z,10
2017-06-16T18:38:40.457Z,10
2017-06-16T18:41:04.953Z,10
2017-06-16T18:45:31.863Z,10
2017-06-16T18:47:56.311Z,5
2017-06-16T18:50:12.356Z,5
2017-06-16T18:52:38.835Z,5
2017-06-16T18:57:06.889Z,5
2017-06-16T18:59:31.626Z,5
2017-06-16T19:03:57.542Z,5
2017-06-16T19:06:23.878Z,5
2017-06-16T19:08:54.798Z,5
2017-06-16T19:11:19.171Z,5
2017-06-16T19:13:50.303Z,0
2017-06-16T19:18:14.313Z,0
2017-06-16T19:20:39.698Z,0
2017-06-16T19:22:55.620Z,0
2017-06-16T19:25:19.963Z,0
2017-06-16T19:27:45.269Z,0
2017-06-16T19:30:24.610Z,0
2017-06-16T19:32:50.954Z,0
2017-06-16T19:35:06.831Z,0
2017-06-16T19:37:31.143Z,0
2017-06-16T19:39:38.531Z,0
2017-06-16T19:42:02.859Z,0
2017-06-16T19:44:27.178Z,0
2017-06-16T19:46:51.496Z,0
2017-06-16T19:49:16.826Z,0
2017-06-16T19:51:41.148Z,0
2017-06-16T19:54:05.489Z,0
2017-06-16T19:56:31.808Z,0
2017-06-16T19:59:04.095Z,0
2017-06-16T20:01:29.474Z,0
2017-06-16T20:03:53.811Z,0
2017-06-16T20:06:18.183Z,0
2017-06-16T20:08:49.097Z,0
2017-06-16T20:11:15.435Z,0
2017-06-16T20:13:46.618Z,0
2017-06-16T20:16:11.944Z,0
2017-06-16T20:18:36.264Z,0
2017-06-16T20:23:08.559Z,0
2017-06-16T20:25:32.845Z,0
2017-06-16T20:27:57.129Z,0
2017-06-16T20:30:22.404Z,0
2017-06-16T20:32:46.689Z,0
2017-06-16T20:35:10.980Z,0
2017-06-16T20:39:37.697Z,0
2017-06-16T20:42:03.000Z,0
2017-06-16T20:44:28.272Z,0
2017-06-16T20:46:54.569Z,0
2017-06-16T20:49:27.499Z,0
2017-06-16T20:51:52.763Z,0
2017-06-16T20:56:25.836Z,0
2017-06-16T20:58:51.051Z,0
2017-06-16T21:01:07.845Z,0
2017-06-16T21:03:34.047Z,0
2017-06-16T21:06:00.275Z,0
2017-06-16T21:08:24.490Z,0
2017-06-16T21:10:32.833Z,0
2017-06-16T21:13:05.770Z,0
2017-06-16T21:15:36.770Z,0
2017-06-16T21:18:02.001Z,0
2017-06-16T21:20:17.752Z,0
2017-06-16T21:22:41.952Z,0
2017-06-16T21:25:13.762Z,0
2017-06-16T21:27:39.015Z,0
2017-06-16T21:30:09.774Z,0
2017-06-16T21:32:33.967Z,0
2017-06-16T21:37:02.645Z,0
2017-06-16T21:39:26.892Z,0
2017-06-16T21:41:53.098Z,0
2017-06-16T21:44:17.322Z,0
2017-06-16T21:46:50.413Z,0
2017-06-16T21:49:07.183Z,0
2017-06-16T21:51:32.391Z,0
2017-06-16T21:55:58.080Z,0
2017-06-16T22:00:23.700Z,0
2017-06-16T22:02:48.944Z,0
2017-06-16T22:05:15.176Z,0
2017-06-16T22:07:40.408Z,0
2017-06-16T22:10:04.615Z,0
2017-06-16T22:12:22.397Z,0
2017-06-16T22:14:47.611Z,0
2017-06-16T22:17:13.847Z,0
2017-06-16T22:19:45.089Z,0
2017-06-16T22:22:09.304Z,0
2017-06-16T22:24:35.542Z,0
2017-06-16T22:26:59.753Z,0
2017-06-16T22:29:24.953Z,0
2017-06-16T22:31:49.153Z,0
2017-06-16T22:34:15.339Z,0
2017-06-16T22:36:47.057Z,0
2017-06-16T22:39:18.051Z,0
2017-06-16T22:41:42.252Z,0
2017-06-16T22:44:15.063Z,0
2017-06-16T22:46:39.161Z,0
2017-06-16T22:48:54.881Z,0
2017-06-16T22:51:12.563Z,0
2017-06-16T22:53:30.276Z,0
2017-06-16T22:55:55.423Z,0
2017-06-16T22:58:20.501Z,0
2017-06-16T23:00:45.637Z,0
2017-06-16T23:03:10.718Z,0
2017-06-16T23:05:35.841Z,0
2017-06-16T23:07:59.971Z,0
2017-06-16T23:10:17.635Z,0
2017-06-16T23:12:41.746Z,0
2017-06-16T23:15:05.600Z,0
2017-06-16T23:17:23.262Z,0
2017-06-16T23:19:47.375Z,0
2017-06-16T23:24:20.632Z,0
2017-06-16T23:26:44.762Z,0
2017-06-16T23:28:54.069Z,0
2017-06-16T23:31:10.686Z,0
2017-06-16T23:33:36.736Z,0
2017-06-16T23:36:01.756Z,0
2017-06-16T23:38:32.343Z,0
2017-06-16T23:41:04.347Z,0
2017-06-16T23:43:29.407Z,0
2017-06-16T23:45:54.481Z,0
2017-06-16T23:48:26.348Z,0
2017-06-16T23:50:52.353Z,0
2017-06-16T23:55:23.229Z,0
2017-06-16T23:57:31.399Z,0
2017-06-16T23:59:55.413Z,0
